createdAt,value
2018-01-06T00:01:20.934Z,99715.83
2018-01-06T00:03:46.746Z,99706.27
2018-01-06T00:06:12.566Z,99700.25
2018-01-06T00:08:38.370Z,99707.19
2018-01-06T00:11:04.219Z,99706.98
2018-01-06T00:13:30.034Z,99714.38
2018-01-06T00:15:55.880Z,99714.85
2018-01-06T00:18:22.522Z,99722.78
2018-01-06T00:20:48.325Z,99728.52
2018-01-06T00:23:14.138Z,99734.48
2018-01-06T00:25:39.950Z,99739.02
2018-01-06T00:28:06.538Z,99745.48
2018-01-06T00:30:33.181Z,99742.92
2018-01-06T00:32:58.988Z,99749.06
2018-01-06T00:35:24.793Z,99753.86
2018-01-06T00:37:51.461Z,99750.10
2018-01-06T00:40:17.266Z,99747.45
2018-01-06T00:42:43.068Z,99749.73
2018-01-06T00:45:08.923Z,99753.00
2018-01-06T00:47:34.737Z,99744.73
2018-01-06T00:50:00.552Z,99752.20
2018-01-06T00:52:26.367Z,99749.73
2018-01-06T00:54:52.186Z,99751.68
2018-01-06T00:57:17.998Z,99756.21
2018-01-06T00:59:43.802Z,99762.03
2018-01-06T01:02:09.645Z,99771.70
2018-01-06T01:04:35.458Z,99766.00
2018-01-06T01:07:02.262Z,99769.39
2018-01-06T01:09:28.072Z,99776.09
2018-01-06T01:11:54.769Z,99779.86
2018-01-06T01:14:20.574Z,99772.68
2018-01-06T01:16:46.409Z,99781.52
2018-01-06T01:19:13.097Z,99772.92
2018-01-06T01:21:38.902Z,99780.33
2018-01-06T01:24:04.750Z,99782.72
2018-01-06T01:26:31.489Z,99785.06
2018-01-06T01:28:57.486Z,99792.31
2018-01-06T01:31:24.168Z,99793.34
2018-01-06T01:33:50.989Z,99801.19
2018-01-06T01:36:17.699Z,99794.95
2018-01-06T01:38:44.499Z,99793.42
2018-01-06T01:41:10.301Z,99793.77
2018-01-06T01:43:36.109Z,99794.46
2018-01-06T01:46:02.779Z,99801.69
2018-01-06T01:48:29.486Z,99801.64
2018-01-06T01:50:55.338Z,99797.84
2018-01-06T01:53:21.156Z,99798.24
2018-01-06T01:55:46.965Z,99791.97
2018-01-06T01:58:12.779Z,99792.91
2018-01-06T02:00:38.574Z,99790.04
2018-01-06T02:03:05.226Z,99791.72
2018-01-06T02:05:31.029Z,99790.81
2018-01-06T02:07:56.838Z,99796.80
2018-01-06T02:10:22.649Z,99803.14
2018-01-06T02:12:48.454Z,99795.87
2018-01-06T02:15:14.262Z,99801.22
2018-01-06T02:17:40.899Z,99818.01
2018-01-06T02:20:06.709Z,99814.25
2018-01-06T02:22:33.462Z,99815.98
2018-01-06T02:24:59.293Z,99818.23
2018-01-06T02:27:26.007Z,99821.22
2018-01-06T02:29:52.809Z,99826.69
2018-01-06T02:32:18.622Z,99820.09
2018-01-06T02:34:44.440Z,99816.77
2018-01-06T02:37:11.096Z,99814.59
2018-01-06T02:39:36.911Z,99821.44
2018-01-06T02:42:02.718Z,99823.78
2018-01-06T02:44:28.576Z,99820.23
2018-01-06T02:46:54.386Z,99817.80
2018-01-06T02:49:21.068Z,99820.11
2018-01-06T02:51:47.814Z,99821.12
2018-01-06T02:54:14.582Z,99818.83
2018-01-06T02:56:41.389Z,99822.38
2018-01-06T02:59:07.198Z,99828.75
2018-01-06T03:01:33.832Z,99827.81
2018-01-06T03:04:00.634Z,99830.66
2018-01-06T03:06:27.341Z,99835.30
2018-01-06T03:08:53.149Z,99832.95
2018-01-06T03:11:18.959Z,99841.41
2018-01-06T03:13:45.781Z,99858.69
2018-01-06T03:16:11.587Z,99853.13
2018-01-06T03:18:37.398Z,99850.21
2018-01-06T03:21:03.210Z,99847.97
2018-01-06T03:23:29.954Z,99851.92
2018-01-06T03:25:55.819Z,99854.17
2018-01-06T03:28:21.626Z,99862.73
2018-01-06T03:30:47.436Z,99869.20
2018-01-06T03:33:13.247Z,99873.14
2018-01-06T03:35:39.054Z,99872.45
2018-01-06T03:38:04.897Z,99878.98
2018-01-06T03:40:30.742Z,99881.74
2018-01-06T03:42:56.586Z,99886.00
2018-01-06T03:45:23.246Z,99886.73
2018-01-06T03:47:49.050Z,99886.42
2018-01-06T03:50:14.861Z,99900.66
2018-01-06T03:52:40.667Z,99905.53
2018-01-06T03:55:06.475Z,99912.19
2018-01-06T03:57:32.281Z,99911.06
2018-01-06T03:59:58.089Z,99915.44
2018-01-06T04:02:23.903Z,99925.05
2018-01-06T04:04:49.711Z,99922.66
2018-01-06T04:07:15.556Z,99919.13
2018-01-06T04:09:41.361Z,99914.38
2018-01-06T04:12:08.189Z,99913.05
2018-01-06T04:14:33.993Z,99914.14
2018-01-06T04:16:59.803Z,99911.08
2018-01-06T04:19:25.613Z,99909.86
2018-01-06T04:21:51.447Z,99921.83
2018-01-06T04:24:17.269Z,99922.32
2018-01-06T04:26:43.077Z,99918.75
2018-01-06T04:29:08.884Z,99927.08
2018-01-06T04:31:34.691Z,99930.00
2018-01-06T04:34:00.489Z,99938.61
2018-01-06T04:36:26.294Z,99938.63
2018-01-06T04:38:52.096Z,99948.29
2018-01-06T04:41:17.957Z,99943.62
2018-01-06T04:43:44.674Z,99948.29
2018-01-06T04:46:10.478Z,99948.58
2018-01-06T04:48:37.297Z,99946.69
2018-01-06T04:51:04.054Z,99952.03
2018-01-06T04:53:29.904Z,99946.62
2018-01-06T04:55:56.575Z,99951.91
2018-01-06T04:58:23.341Z,99950.38
2018-01-06T05:00:50.061Z,99951.55
2018-01-06T05:03:16.889Z,99947.95
2018-01-06T05:05:42.694Z,99963.53
2018-01-06T05:08:09.486Z,99963.64
2018-01-06T05:10:36.310Z,99967.48
2018-01-06T05:13:03.045Z,99972.34
2018-01-06T05:15:28.890Z,99966.78
2018-01-06T05:20:28.394Z,99962.41
2018-01-06T05:22:55.181Z,99965.11
2018-01-06T05:25:22.042Z,99965.86
2018-01-06T05:27:48.850Z,99971.61
2018-01-06T05:30:14.695Z,99968.72
2018-01-06T05:32:41.398Z,99967.41
2018-01-06T05:35:08.194Z,99975.19
2018-01-06T05:37:34.002Z,99984.16
2018-01-06T05:39:59.845Z,99986.88
2018-01-06T05:42:25.646Z,99990.83
2018-01-06T05:44:51.457Z,99991.11
2018-01-06T05:47:17.272Z,99995.23
2018-01-06T05:49:43.113Z,99999.73
2018-01-06T05:52:08.971Z,100008.54
2018-01-06T05:54:35.626Z,100022.73
2018-01-06T05:57:01.433Z,100014.20
2018-01-06T05:59:27.256Z,100015.79
2018-01-06T06:01:53.069Z,100017.05
2018-01-06T06:04:18.926Z,100025.69
2018-01-06T06:06:44.757Z,100024.56
2018-01-06T06:09:10.579Z,100024.61
2018-01-06T06:11:36.391Z,100026.64
2018-01-06T06:14:02.194Z,100033.30
2018-01-06T06:16:28.010Z,100033.73
2018-01-06T06:18:53.849Z,100040.83
2018-01-06T06:21:19.667Z,100043.25
2018-01-06T06:23:45.469Z,100041.20
2018-01-06T06:26:11.286Z,100049.12
2018-01-06T06:28:37.085Z,100056.56
2018-01-06T06:31:02.890Z,100052.30
2018-01-06T06:33:28.726Z,100045.75
2018-01-06T06:35:55.369Z,100049.30
2018-01-06T06:38:22.121Z,100048.05
2018-01-06T06:40:48.897Z,100048.05
2018-01-06T06:43:15.692Z,100048.00
2018-01-06T06:45:42.493Z,100050.79
2018-01-06T06:48:09.327Z,100047.92
2018-01-06T06:50:35.137Z,100051.60
2018-01-06T06:53:01.017Z,100058.97
2018-01-06T06:55:26.862Z,100058.88
2018-01-06T06:57:52.685Z,100062.78
2018-01-06T07:00:18.490Z,100070.92
2018-01-06T07:02:44.308Z,100066.80
2018-01-06T07:05:10.166Z,100066.28
2018-01-06T07:07:35.990Z,100075.28
2018-01-06T07:10:01.800Z,100070.91
2018-01-06T07:12:27.601Z,100077.14
2018-01-06T07:14:53.401Z,100092.19
2018-01-06T07:17:19.253Z,100086.48
2018-01-06T07:19:45.071Z,100093.27
2018-01-06T07:22:10.878Z,100086.52
2018-01-06T07:24:36.698Z,100089.98
2018-01-06T07:27:02.549Z,100096.84
2018-01-06T07:29:28.366Z,100105.20
2018-01-06T07:31:54.216Z,100113.69
2018-01-06T07:34:21.031Z,100118.64
2018-01-06T07:36:46.845Z,100125.16
2018-01-06T07:39:13.197Z,100136.05
2018-01-06T07:41:39.977Z,100138.27
2018-01-06T07:44:05.801Z,100138.89
2018-01-06T07:46:31.608Z,100147.32
2018-01-06T07:48:57.407Z,100156.13
2018-01-06T07:51:23.207Z,100162.09
2018-01-06T07:53:49.060Z,100176.94
2018-01-06T07:56:15.909Z,100182.64
2018-01-06T07:58:42.709Z,100182.29
2018-01-06T08:01:08.694Z,100192.72
2018-01-06T08:03:35.449Z,100198.28
2018-01-06T08:06:01.257Z,100210.22
2018-01-06T08:08:27.078Z,100212.54
2018-01-06T08:10:53.690Z,100218.28
2018-01-06T08:13:20.419Z,100220.17
2018-01-06T08:15:47.193Z,100216.66
2018-01-06T08:18:12.997Z,100215.70
2018-01-06T08:20:38.819Z,100207.09
2018-01-06T08:23:04.667Z,100215.56
2018-01-06T08:25:30.679Z,100221.88
2018-01-06T08:27:56.517Z,100225.98
2018-01-06T08:30:22.409Z,100226.40
2018-01-06T08:32:49.025Z,100227.94
2018-01-06T08:35:14.829Z,100225.67
2018-01-06T08:37:40.658Z,100225.95
2018-01-06T08:40:06.461Z,100230.61
2018-01-06T08:42:32.265Z,100233.50
2018-01-06T08:44:58.074Z,100235.23
2018-01-06T08:47:23.922Z,100238.16
2018-01-06T08:49:49.734Z,100244.83
2018-01-06T08:52:15.612Z,100239.29
2018-01-06T08:54:41.491Z,100249.17
2018-01-06T08:57:08.252Z,100249.59
2018-01-06T08:59:34.102Z,100252.46
2018-01-06T09:01:59.905Z,100255.17
2018-01-06T09:04:25.834Z,100259.59
2018-01-06T09:06:51.629Z,100259.00
2018-01-06T09:09:18.417Z,100260.42
2018-01-06T09:11:44.217Z,100272.30
2018-01-06T09:14:10.026Z,100267.52
2018-01-06T09:16:35.830Z,100280.35
2018-01-06T09:19:01.635Z,100279.41
2018-01-06T09:21:27.445Z,100283.52
2018-01-06T09:23:53.293Z,100287.75
2018-01-06T09:26:19.090Z,100284.44
2018-01-06T09:28:45.749Z,100284.83
2018-01-06T09:31:11.554Z,100286.30
2018-01-06T09:33:37.359Z,100287.06
2018-01-06T09:38:26.540Z,100289.13
2018-01-06T09:40:52.434Z,100287.58
2018-01-06T09:43:19.299Z,100287.77
2018-01-06T09:45:45.133Z,100284.48
2018-01-06T09:48:11.758Z,100293.10
2018-01-06T09:50:38.554Z,100293.92
2018-01-06T09:53:04.413Z,100301.87
2018-01-06T09:55:30.218Z,100300.51
2018-01-06T09:57:56.051Z,100297.38
2018-01-06T10:00:22.879Z,100299.53
2018-01-06T10:02:48.745Z,100299.11
2018-01-06T10:05:14.559Z,100301.98
2018-01-06T10:07:40.387Z,100303.56
2018-01-06T10:10:06.198Z,100308.80
2018-01-06T10:12:32.900Z,100300.33
2018-01-06T10:14:59.657Z,100303.39
2018-01-06T10:17:25.457Z,100303.23
2018-01-06T10:19:51.519Z,100313.27
2018-01-06T10:22:17.370Z,100319.73
2018-01-06T10:24:44.094Z,100322.02
2018-01-06T10:27:09.917Z,100321.30
2018-01-06T10:29:35.729Z,100329.72
2018-01-06T10:32:01.546Z,100328.25
2018-01-06T10:34:28.319Z,100328.39
2018-01-06T10:36:55.173Z,100321.05
2018-01-06T10:39:20.990Z,100326.30
2018-01-06T10:41:46.937Z,100318.27
2018-01-06T10:44:12.762Z,100321.06
2018-01-06T10:46:38.570Z,100329.48
2018-01-06T10:49:04.421Z,100334.76
2018-01-06T10:51:30.227Z,100334.08
2018-01-06T10:53:56.044Z,100329.44
2018-01-06T10:56:21.858Z,100335.82
2018-01-06T10:58:47.676Z,100334.97
2018-01-06T11:01:19.627Z,100333.94
2018-01-06T11:03:45.455Z,100328.13
2018-01-06T11:06:11.296Z,100332.22
2018-01-06T11:08:37.121Z,100331.32
2018-01-06T11:11:02.995Z,100340.15
2018-01-06T11:13:29.739Z,100341.39
2018-01-06T11:15:55.733Z,100342.01
2018-01-06T11:18:21.605Z,100338.37
2018-01-06T11:20:47.572Z,100336.30
2018-01-06T11:23:14.366Z,100343.52
2018-01-06T11:25:40.366Z,100344.80
2018-01-06T11:28:07.162Z,100344.02
2018-01-06T11:30:33.972Z,100351.43
2018-01-06T11:32:59.817Z,100347.43
2018-01-06T11:35:25.638Z,100355.31
2018-01-06T11:37:51.653Z,100362.87
2018-01-06T11:40:18.520Z,100366.16
2018-01-06T11:42:44.326Z,100361.41
2018-01-06T11:45:10.138Z,100363.23
2018-01-06T11:47:35.945Z,100369.52
2018-01-06T11:50:01.756Z,100380.00
2018-01-06T11:52:28.481Z,100380.83
2018-01-06T11:54:54.329Z,100379.28
2018-01-06T11:57:20.143Z,100384.45
2018-01-06T11:59:45.984Z,100379.85
2018-01-06T12:02:11.789Z,100374.32
2018-01-06T12:04:37.602Z,100370.56
2018-01-06T12:07:03.409Z,100375.03
2018-01-06T12:09:29.236Z,100379.08
2018-01-06T12:11:55.064Z,100385.13
2018-01-06T12:14:20.886Z,100388.63
2018-01-06T12:16:46.709Z,100380.48
2018-01-06T12:19:12.530Z,100372.26
2018-01-06T12:21:38.463Z,100373.06
2018-01-06T12:24:04.343Z,100368.23
2018-01-06T12:26:30.146Z,100372.87
2018-01-06T12:28:55.962Z,100374.66
2018-01-06T12:31:21.801Z,100382.01
2018-01-06T12:33:47.615Z,100378.80
2018-01-06T12:36:13.531Z,100364.05
2018-01-06T12:38:39.522Z,100368.27
2018-01-06T12:41:06.321Z,100369.61
2018-01-06T12:43:33.159Z,100373.64
2018-01-06T12:45:59.058Z,100384.23
2018-01-06T12:48:24.906Z,100383.69
2018-01-06T12:50:50.722Z,100390.73
2018-01-06T12:53:17.530Z,100398.05
2018-01-06T12:55:43.391Z,100407.16
2018-01-06T12:58:09.221Z,100405.59
2018-01-06T13:00:35.056Z,100402.03
2018-01-06T13:03:00.870Z,100398.95
2018-01-06T13:05:26.683Z,100405.66
2018-01-06T13:07:52.555Z,100415.42
2018-01-06T13:10:18.384Z,100412.63
2018-01-06T13:12:44.206Z,100401.33
2018-01-06T13:15:10.848Z,100411.55
2018-01-06T13:17:36.674Z,100416.04
2018-01-06T13:20:02.530Z,100416.39
2018-01-06T13:22:28.418Z,100407.05
2018-01-06T13:24:55.243Z,100408.91
2018-01-06T13:27:22.011Z,100411.98
2018-01-06T13:29:47.849Z,100419.16
2018-01-06T13:32:13.734Z,100425.48
2018-01-06T13:34:39.589Z,100423.95
2018-01-06T13:37:06.590Z,100417.97
2018-01-06T13:39:32.626Z,100427.08
2018-01-06T13:41:58.608Z,100432.88
2018-01-06T13:44:24.597Z,100435.73
2018-01-06T13:46:51.503Z,100441.23
2018-01-06T13:49:17.427Z,100441.95
2018-01-06T13:51:43.249Z,100441.87
2018-01-06T13:54:09.070Z,100445.75
2018-01-06T13:56:34.878Z,100455.33
2018-01-06T13:59:00.698Z,100453.38
2018-01-06T14:01:26.538Z,100458.29
2018-01-06T14:03:52.555Z,100459.12
2018-01-06T14:06:18.445Z,100458.15
2018-01-06T14:08:44.490Z,100462.35
2018-01-06T14:11:10.343Z,100461.35
2018-01-06T14:13:36.145Z,100463.92
2018-01-06T14:16:01.989Z,100474.53
2018-01-06T14:18:27.793Z,100473.83
2018-01-06T14:20:53.642Z,100477.61
2018-01-06T14:23:33.550Z,100486.15
2018-01-06T14:25:59.405Z,100498.37
2018-01-06T14:28:25.218Z,100505.28
2018-01-06T14:30:51.060Z,100501.53
2018-01-06T14:33:17.857Z,100512.67
2018-01-06T14:35:43.673Z,100509.48
2018-01-06T14:38:09.483Z,100524.73
2018-01-06T14:40:35.399Z,100522.43
2018-01-06T14:43:01.230Z,100523.39
2018-01-06T14:45:27.934Z,100514.86
2018-01-06T14:47:53.740Z,100518.25
2018-01-06T14:50:19.587Z,100521.48
2018-01-06T14:52:45.396Z,100534.92
2018-01-06T14:55:15.203Z,100530.61
2018-01-06T14:57:41.129Z,100529.33
2018-01-06T15:00:07.795Z,100528.79
2018-01-06T15:02:33.610Z,100517.55
2018-01-06T15:04:59.424Z,100512.20
2018-01-06T15:07:25.247Z,100526.84
2018-01-06T15:09:51.070Z,100533.51
2018-01-06T15:12:16.890Z,100527.86
2018-01-06T15:14:42.697Z,100526.53
2018-01-06T15:17:09.340Z,100532.17
2018-01-06T15:19:35.153Z,100538.94
2018-01-06T15:22:00.973Z,100537.28
2018-01-06T15:24:27.738Z,100544.31
2018-01-06T15:26:53.542Z,100549.77
2018-01-06T15:29:19.423Z,100564.42
2018-01-06T15:31:45.251Z,100570.69
2018-01-06T15:34:11.120Z,100568.95
2018-01-06T15:36:36.923Z,100566.86
2018-01-06T15:39:02.771Z,100571.52
2018-01-06T15:41:28.674Z,100581.27
2018-01-06T15:43:54.591Z,100581.00
2018-01-06T15:46:20.423Z,100589.67
2018-01-06T15:48:47.449Z,100589.80
2018-01-06T15:51:14.098Z,100593.21
2018-01-06T15:53:39.913Z,100597.11
2018-01-06T15:56:05.836Z,100593.77
2018-01-06T15:58:31.653Z,100599.72
2018-01-06T16:00:57.466Z,100597.83
2018-01-06T16:03:23.290Z,100605.44
2018-01-06T16:05:49.120Z,100612.73
2018-01-06T16:08:14.938Z,100612.82
2018-01-06T16:10:40.762Z,100625.02
2018-01-06T16:13:07.756Z,100623.91
2018-01-06T16:15:34.690Z,100621.69
2018-01-06T16:18:00.526Z,100621.95
2018-01-06T16:20:26.346Z,100630.16
2018-01-06T16:22:52.299Z,100632.98
2018-01-06T16:25:18.242Z,100634.84
2018-01-06T16:27:44.069Z,100635.47
2018-01-06T16:30:09.889Z,100647.46
2018-01-06T16:32:35.726Z,100652.11
2018-01-06T16:35:01.606Z,100653.16
2018-01-06T16:37:27.426Z,100659.28
2018-01-06T16:39:54.190Z,100667.81
2018-01-06T16:42:20.911Z,100672.38
2018-01-06T16:44:46.742Z,100675.60
2018-01-06T16:47:12.558Z,100682.60
2018-01-06T16:49:38.365Z,100684.01
2018-01-06T16:52:04.178Z,100685.77
2018-01-06T16:54:29.999Z,100690.94
2018-01-06T16:56:55.874Z,100698.25
2018-01-06T16:59:21.854Z,100698.52
2018-01-06T17:01:47.669Z,100702.13
2018-01-06T17:04:14.353Z,100699.09
2018-01-06T17:06:41.009Z,100695.64
2018-01-06T17:09:06.906Z,100691.97
2018-01-06T17:11:32.734Z,100684.78
2018-01-06T17:13:58.618Z,100681.98
2018-01-06T17:16:24.485Z,100679.73
2018-01-06T17:18:51.327Z,100690.12
2018-01-06T17:21:17.140Z,100703.16
2018-01-06T17:23:43.790Z,100700.02
2018-01-06T17:26:10.542Z,100699.38
2018-01-06T17:28:37.390Z,100709.59
2018-01-06T17:31:03.235Z,100719.23
2018-01-06T17:33:29.105Z,100727.39
2018-01-06T17:35:55.086Z,100737.39
2018-01-06T17:38:20.948Z,100739.64
2018-01-06T17:40:46.922Z,100744.42
2018-01-06T17:43:12.775Z,100755.13
2018-01-06T17:45:38.634Z,100758.30
2018-01-06T17:48:05.287Z,100762.53
2018-01-06T17:50:31.108Z,100764.01
2018-01-06T17:52:56.939Z,100761.30
2018-01-06T17:55:22.802Z,100772.06
2018-01-06T17:57:48.743Z,100768.95
2018-01-06T18:00:14.626Z,100775.97
2018-01-06T18:02:40.456Z,100775.29
2018-01-06T18:05:06.274Z,100776.94
2018-01-06T18:07:32.742Z,100781.80
2018-01-06T18:09:58.594Z,100785.26
2018-01-06T18:12:24.412Z,100788.54
2018-01-06T18:14:51.153Z,100795.03
2018-01-06T18:17:16.973Z,100798.53
2018-01-06T18:19:42.794Z,100796.03
2018-01-06T18:22:08.608Z,100798.19
2018-01-06T18:24:34.424Z,100803.53
2018-01-06T18:27:00.415Z,100807.84
2018-01-06T18:29:27.102Z,100806.05
2018-01-06T18:31:53.867Z,100801.86
2018-01-06T18:34:19.690Z,100806.87
2018-01-06T18:36:45.513Z,100823.77
2018-01-06T18:39:11.354Z,100826.98
2018-01-06T18:41:37.195Z,100833.04
2018-01-06T18:44:03.047Z,100837.09
2018-01-06T18:46:28.947Z,100838.11
2018-01-06T18:48:54.769Z,100834.13
2018-01-06T18:51:21.659Z,100832.19
2018-01-06T18:53:47.704Z,100836.26
2018-01-06T18:56:13.515Z,100841.22
2018-01-06T18:58:40.286Z,100840.20
2018-01-06T19:01:06.964Z,100842.55
2018-01-06T19:03:33.805Z,100846.85
2018-01-06T19:06:00.749Z,100853.55
2018-01-06T19:08:26.699Z,100862.52
2018-01-06T19:10:52.534Z,100873.42
2018-01-06T19:13:18.406Z,100864.53
2018-01-06T19:15:45.190Z,100863.67
2018-01-06T19:18:11.034Z,100874.95
2018-01-06T19:20:36.889Z,100887.44
2018-01-06T19:23:02.719Z,100890.98
2018-01-06T19:25:28.584Z,100886.60
2018-01-06T19:27:54.397Z,100897.17
2018-01-06T19:30:20.298Z,100902.80
2018-01-06T19:32:46.115Z,100914.11
2018-01-06T19:35:11.966Z,100920.52
2018-01-06T19:37:37.817Z,100929.34
2018-01-06T19:40:04.640Z,100925.88
2018-01-06T19:42:30.614Z,100927.45
2018-01-06T19:44:56.459Z,100924.00
2018-01-06T19:47:22.270Z,100935.79
2018-01-06T19:49:48.085Z,100940.04
2018-01-06T19:52:13.926Z,100946.94
2018-01-06T19:54:39.774Z,100955.83
2018-01-06T19:57:05.608Z,100947.06
2018-01-06T19:59:31.466Z,100953.47
2018-01-06T20:01:57.336Z,100959.94
2018-01-06T20:04:23.162Z,100962.00
2018-01-06T20:06:49.980Z,100976.48
2018-01-06T20:09:16.782Z,100975.51
2018-01-06T20:11:43.569Z,100978.14
2018-01-06T20:14:10.290Z,100981.19
2018-01-06T20:16:36.135Z,100984.05
2018-01-06T20:19:01.958Z,100992.41
2018-01-06T20:21:27.778Z,100993.22
2018-01-06T20:23:53.629Z,100996.41
2018-01-06T20:26:19.471Z,100999.11
2018-01-06T20:28:45.300Z,100996.47
2018-01-06T20:31:11.131Z,101001.41
2018-01-06T20:33:36.986Z,101005.53
2018-01-06T20:36:02.806Z,101007.03
2018-01-06T20:38:28.786Z,101009.73
2018-01-06T20:40:54.864Z,101008.09
2018-01-06T20:43:20.700Z,101010.59
2018-01-06T20:45:46.564Z,101016.02
2018-01-06T20:48:12.479Z,101017.78
2018-01-06T20:50:38.526Z,101026.48
2018-01-06T20:53:04.498Z,101035.56
2018-01-06T20:55:30.318Z,101053.11
2018-01-06T20:57:56.190Z,101046.34
2018-01-06T21:00:22.063Z,101047.95
2018-01-06T21:02:47.917Z,101055.34
2018-01-06T21:05:13.925Z,101060.64
2018-01-06T21:07:40.586Z,101070.66
2018-01-06T21:10:07.501Z,101072.05
2018-01-06T21:12:34.306Z,101071.75
2018-01-06T21:15:00.286Z,101074.47
2018-01-06T21:17:26.119Z,101074.30
2018-01-06T21:19:52.941Z,101083.23
2018-01-06T21:22:18.770Z,101087.20
2018-01-06T21:24:44.595Z,101088.01
2018-01-06T21:27:10.617Z,101082.27
2018-01-06T21:29:36.766Z,101081.38
2018-01-06T21:32:02.620Z,101082.16
2018-01-06T21:34:28.485Z,101092.92
2018-01-06T21:36:54.385Z,101101.04
2018-01-06T21:39:20.207Z,101098.94
2018-01-06T21:41:46.064Z,101105.14
2018-01-06T21:44:11.929Z,101107.78
2018-01-06T21:46:37.756Z,101108.91
2018-01-06T21:49:04.395Z,101115.02
2018-01-06T21:51:30.214Z,101115.14
2018-01-06T21:53:56.895Z,101122.20
2018-01-06T21:56:22.716Z,101130.81
2018-01-06T21:58:48.601Z,101127.69
2018-01-06T22:01:14.465Z,101131.89
2018-01-06T22:03:40.311Z,101130.21
2018-01-06T22:06:08.334Z,101133.56
2018-01-06T22:08:34.167Z,101151.18
2018-01-06T22:10:59.992Z,101160.57
2018-01-06T22:13:25.813Z,101164.92
2018-01-06T22:15:51.748Z,101167.80
2018-01-06T22:18:17.712Z,101167.19
2018-01-06T22:20:43.685Z,101167.05
2018-01-06T22:23:10.912Z,101168.83
2018-01-06T22:25:36.750Z,101168.38
2018-01-06T22:28:02.584Z,101172.60
2018-01-06T22:30:28.429Z,101184.19
2018-01-06T22:32:54.454Z,101187.80
2018-01-06T22:35:20.270Z,101185.90
2018-01-06T22:37:48.569Z,101185.41
2018-01-06T22:40:14.483Z,101190.70
2018-01-06T22:42:40.390Z,101195.03
2018-01-06T22:45:06.205Z,101210.97
2018-01-06T22:47:32.950Z,101220.66
2018-01-06T22:49:58.775Z,101228.73
2018-01-06T22:52:25.594Z,101229.63
2018-01-06T22:54:52.280Z,101227.24
2018-01-06T22:57:18.256Z,101232.41
2018-01-06T22:59:44.071Z,101238.76
2018-01-06T23:02:09.895Z,101241.81
2018-01-06T23:04:35.775Z,101233.60
2018-01-06T23:07:01.586Z,101234.98
2018-01-06T23:09:27.402Z,101234.22
2018-01-06T23:11:53.217Z,101241.97
2018-01-06T23:14:19.034Z,101248.52
2018-01-06T23:16:44.874Z,101246.70
2018-01-06T23:19:10.702Z,101247.36
2018-01-06T23:21:36.527Z,101248.22
2018-01-06T23:24:02.345Z,101249.12
2018-01-06T23:26:28.360Z,101251.45
2018-01-06T23:28:54.389Z,101254.98
2018-01-06T23:31:20.402Z,101263.67
2018-01-06T23:33:46.219Z,101261.39
2018-01-06T23:36:12.092Z,101267.17
2018-01-06T23:38:37.944Z,101274.08
2018-01-06T23:41:04.722Z,101270.16
2018-01-06T23:43:30.539Z,101271.84
2018-01-06T23:45:56.363Z,101268.23
2018-01-06T23:48:22.191Z,101272.19
2018-01-06T23:50:48.030Z,101280.73
2018-01-06T23:53:13.867Z,101282.62
2018-01-06T23:55:39.682Z,101286.04
2018-01-06T23:58:05.503Z,101288.34
